sensor_id;sensor_type;location;lat;lon;timestamp;pressure;altitude;pressure_sealevel;temperature;humidity
5595;BME280;1003;48.002;7.788;2023-03-14T00:00:57;100742.53;;;9.49;100.00
5595;BME280;1003;48.002;7.788;2023-03-14T00:03:25;100732.66;;;9.58;100.00
5595;BME280;1003;48.002;7.788;2023-03-14T00:05:52;100728.66;;;9.67;100.00
5595;BME280;1003;48.002;7.788;2023-03-14T00:08:19;100708.72;;;9.75;100.00
5595;BME280;1003;48.002;7.788;2023-03-14T00:10:47;100687.84;;;9.78;100.00
5595;BME280;1003;48.002;7.788;2023-03-14T00:13:14;100683.06;;;9.91;100.00
5595;BME280;1003;48.002;7.788;2023-03-14T00:15:41;100649.53;;;9.89;100.00
5595;BME280;1003;48.002;7.788;2023-03-14T00:18:08;100630.56;;;10.08;100.00
5595;BME280;1003;48.002;7.788;2023-03-14T00:20:36;100623.41;;;10.33;100.00
5595;BME280;1003;48.002;7.788;2023-03-14T00:23:03;100579.06;;;10.36;100.00
5595;BME280;1003;48.002;7.788;2023-03-14T00:25:30;100531.44;;;10.44;100.00
5595;BME280;1003;48.002;7.788;2023-03-14T00:27:57;100470.34;;;10.52;100.00
5595;BME280;1003;48.002;7.788;2023-03-14T00:30:24;100416.88;;;10.69;100.00
5595;BME280;1003;48.002;7.788;2023-03-14T00:32:51;100345.66;;;10.74;100.00
5595;BME280;1003;48.002;7.788;2023-03-14T00:35:18;100244.31;;;10.86;100.00
5595;BME280;1003;48.002;7.788;2023-03-14T00:37:46;100153.88;;;11.09;100.00
5595;BME280;1003;48.002;7.788;2023-03-14T00:40:13;100013.00;;;11.15;100.00
5595;BME280;1003;48.002;7.788;2023-03-14T00:42:40;99842.72;;;11.19;100.00
5595;BME280;1003;48.002;7.788;2023-03-14T00:45:09;99664.06;;;11.22;100.00
5595;BME280;1003;48.002;7.788;2023-03-14T00:47:36;99458.59;;;11.22;100.00
5595;BME280;1003;48.002;7.788;2023-03-14T00:50:04;99232.13;;;11.27;100.00
5595;BME280;1003;48.002;7.788;2023-03-14T00:52:31;99031.63;;;11.29;100.00
5595;BME280;1003;48.002;7.788;2023-03-14T00:55:00;98797.63;;;11.32;100.00
5595;BME280;1003;48.002;7.788;2023-03-14T00:57:27;98129.53;;;11.23;100.00
5595;BME280;1003;48.002;7.788;2023-03-14T00:59:54;98006.50;;;11.17;100.00
5595;BME280;1003;48.002;7.788;2023-03-14T01:02:21;97920.91;;;11.20;100.00
5595;BME280;1003;48.002;7.788;2023-03-14T01:04:48;97832.63;;;11.03;100.00
5595;BME280;1003;48.002;7.788;2023-03-14T01:07:15;97776.63;;;10.99;100.00
5595;BME280;1003;48.002;7.788;2023-03-14T01:09:42;97815.66;;;10.85;100.00
5595;BME280;1003;48.002;7.788;2023-03-14T01:12:11;97854.75;;;10.93;100.00
5595;BME280;1003;48.002;7.788;2023-03-14T01:14:38;97875.78;;;10.91;100.00
5595;BME280;1003;48.002;7.788;2023-03-14T01:17:05;97891.59;;;10.94;100.00
5595;BME280;1003;48.002;7.788;2023-03-14T01:19:32;97902.66;;;11.14;100.00
5595;BME280;1003;48.002;7.788;2023-03-14T01:21:59;97934.19;;;11.24;100.00
5595;BME280;1003;48.002;7.788;2023-03-14T01:24:26;97946.94;;;11.19;100.00
5595;BME280;1003;48.002;7.788;2023-03-14T01:26:53;97956.00;;;11.23;100.00
5595;BME280;1003;48.002;7.788;2023-03-14T01:29:22;97950.69;;;11.06;100.00
5595;BME280;1003;48.002;7.788;2023-03-14T01:31:49;97944.25;;;10.97;100.00
5595;BME280;1003;48.002;7.788;2023-03-14T01:34:16;97952.81;;;10.92;100.00
5595;BME280;1003;48.002;7.788;2023-03-14T01:36:43;97943.63;;;10.91;100.00
5595;BME280;1003;48.002;7.788;2023-03-14T01:39:10;97931.22;;;10.86;100.00
5595;BME280;1003;48.002;7.788;2023-03-14T01:41:37;97953.81;;;10.88;100.00
5595;BME280;1003;48.002;7.788;2023-03-14T01:44:04;97932.19;;;10.82;100.00
5595;BME280;1003;48.002;7.788;2023-03-14T01:46:37;97918.22;;;10.73;100.00
5595;BME280;1003;48.002;7.788;2023-03-14T01:49:16;97926.00;;;10.66;100.00
5595;BME280;1003;48.002;7.788;2023-03-14T01:51:52;97958.69;;;10.64;100.00
5595;BME280;1003;48.002;7.788;2023-03-14T01:54:28;97937.09;;;10.59;100.00
5595;BME280;1003;48.002;7.788;2023-03-14T01:57:04;97927.22;;;10.52;100.00
5595;BME280;1003;48.002;7.788;2023-03-14T01:59:33;97900.72;;;10.44;100.00
5595;BME280;1003;48.002;7.788;2023-03-14T02:02:04;97885.47;;;10.48;100.00
5595;BME280;1003;48.002;7.788;2023-03-14T02:04:35;97870.59;;;10.42;100.00
5595;BME280;1003;48.002;7.788;2023-03-14T02:07:09;97879.13;;;10.37;100.00
5595;BME280;1003;48.002;7.788;2023-03-14T02:09:39;97875.69;;;10.41;100.00
5595;BME280;1003;48.002;7.788;2023-03-14T02:12:09;97877.41;;;10.39;100.00
5595;BME280;1003;48.002;7.788;2023-03-14T02:14:37;97871.72;;;10.34;100.00
5595;BME280;1003;48.002;7.788;2023-03-14T02:17:06;97861.44;;;10.41;100.00
5595;BME280;1003;48.002;7.788;2023-03-14T02:19:58;97861.22;;;10.47;100.00
5595;BME280;1003;48.002;7.788;2023-03-14T02:22:31;97844.88;;;10.62;100.00
5595;BME280;1003;48.002;7.788;2023-03-14T02:25:07;97828.28;;;10.57;100.00
5595;BME280;1003;48.002;7.788;2023-03-14T02:27:37;97820.69;;;10.58;100.00
5595;BME280;1003;48.002;7.788;2023-03-14T02:30:08;97798.97;;;10.57;100.00
5595;BME280;1003;48.002;7.788;2023-03-14T02:32:40;97780.66;;;10.54;100.00
5595;BME280;1003;48.002;7.788;2023-03-14T02:35:14;97766.59;;;10.48;100.00
5595;BME280;1003;48.002;7.788;2023-03-14T02:37:47;97755.59;;;10.52;100.00
5595;BME280;1003;48.002;7.788;2023-03-14T02:40:16;97748.06;;;10.52;100.00
5595;BME280;1003;48.002;7.788;2023-03-14T02:42:44;97728.78;;;10.52;100.00
5595;BME280;1003;48.002;7.788;2023-03-14T02:45:40;97710.44;;;10.50;100.00
5595;BME280;1003;48.002;7.788;2023-03-14T02:48:13;97694.56;;;10.50;100.00
5595;BME280;1003;48.002;7.788;2023-03-14T02:50:42;97684.81;;;10.41;100.00
5595;BME280;1003;48.002;7.788;2023-03-14T02:53:14;97689.00;;;10.40;100.00
5595;BME280;1003;48.002;7.788;2023-03-14T02:55:46;97672.31;;;10.39;100.00
5595;BME280;1003;48.002;7.788;2023-03-14T02:58:15;97666.03;;;10.51;100.00
5595;BME280;1003;48.002;7.788;2023-03-14T03:00:42;97663.41;;;10.54;100.00
5595;BME280;1003;48.002;7.788;2023-03-14T03:03:10;97656.69;;;10.55;100.00
5595;BME280;1003;48.002;7.788;2023-03-14T03:05:37;97642.19;;;10.63;100.00
5595;BME280;1003;48.002;7.788;2023-03-14T03:08:05;97630.56;;;10.60;100.00
5595;BME280;1003;48.002;7.788;2023-03-14T03:10:32;97616.34;;;10.59;100.00
5595;BME280;1003;48.002;7.788;2023-03-14T03:13:00;97611.22;;;10.62;100.00
5595;BME280;1003;48.002;7.788;2023-03-14T03:15:29;97600.75;;;10.51;100.00
5595;BME280;1003;48.002;7.788;2023-03-14T03:17:56;97602.16;;;10.58;100.00
5595;BME280;1003;48.002;7.788;2023-03-14T03:20:23;97590.69;;;10.51;100.00
5595;BME280;1003;48.002;7.788;2023-03-14T03:22:50;97592.22;;;10.55;100.00
5595;BME280;1003;48.002;7.788;2023-03-14T03:25:18;97595.59;;;10.54;100.00
5595;BME280;1003;48.002;7.788;2023-03-14T03:27:45;97576.66;;;10.45;100.00
5595;BME280;1003;48.002;7.788;2023-03-14T03:30:13;97581.19;;;10.36;100.00
5595;BME280;1003;48.002;7.788;2023-03-14T03:32:41;97576.75;;;10.42;100.00
5595;BME280;1003;48.002;7.788;2023-03-14T03:35:09;97573.25;;;10.46;100.00
5595;BME280;1003;48.002;7.788;2023-03-14T03:37:36;97567.59;;;10.41;100.00
5595;BME280;1003;48.002;7.788;2023-03-14T03:40:06;97564.31;;;10.39;100.00
5595;BME280;1003;48.002;7.788;2023-03-14T03:42:34;97554.94;;;10.44;100.00
5595;BME280;1003;48.002;7.788;2023-03-14T03:45:03;97554.53;;;10.55;100.00
5595;BME280;1003;48.002;7.788;2023-03-14T03:47:31;97532.03;;;10.52;100.00
5595;BME280;1003;48.002;7.788;2023-03-14T03:49:59;97531.72;;;10.38;100.00
5595;BME280;1003;48.002;7.788;2023-03-14T03:52:26;97524.53;;;10.29;100.00
5595;BME280;1003;48.002;7.788;2023-03-14T03:54:56;97530.47;;;10.26;100.00
5595;BME280;1003;48.002;7.788;2023-03-14T03:57:23;97534.75;;;10.22;100.00
5595;BME280;1003;48.002;7.788;2023-03-14T03:59:51;97539.75;;;10.24;100.00
5595;BME280;1003;48.002;7.788;2023-03-14T04:02:17;97536.59;;;10.17;100.00
5595;BME280;1003;48.002;7.788;2023-03-14T04:04:44;97537.19;;;10.25;100.00
5595;BME280;1003;48.002;7.788;2023-03-14T04:07:13;97535.41;;;10.28;100.00
5595;BME280;1003;48.002;7.788;2023-03-14T04:09:40;97516.34;;;10.23;100.00
5595;BME280;1003;48.002;7.788;2023-03-14T04:12:07;97516.88;;;10.32;100.00
5595;BME280;1003;48.002;7.788;2023-03-14T04:14:36;97508.91;;;10.44;100.00
5595;BME280;1003;48.002;7.788;2023-03-14T04:17:03;97499.22;;;10.57;100.00
5595;BME280;1003;48.002;7.788;2023-03-14T04:19:30;97494.13;;;10.58;100.00
5595;BME280;1003;48.002;7.788;2023-03-14T04:21:57;97483.50;;;10.51;100.00
5595;BME280;1003;48.002;7.788;2023-03-14T04:24:26;97492.81;;;10.49;100.00
5595;BME280;1003;48.002;7.788;2023-03-14T04:26:53;97490.69;;;10.39;100.00
5595;BME280;1003;48.002;7.788;2023-03-14T04:29:20;97476.16;;;10.23;100.00
5595;BME280;1003;48.002;7.788;2023-03-14T04:31:47;97470.63;;;10.14;100.00
5595;BME280;1003;48.002;7.788;2023-03-14T04:34:14;97470.34;;;10.21;100.00
5595;BME280;1003;48.002;7.788;2023-03-14T04:36:41;97467.00;;;10.21;100.00
5595;BME280;1003;48.002;7.788;2023-03-14T04:39:08;97475.34;;;10.21;100.00
5595;BME280;1003;48.002;7.788;2023-03-14T04:41:36;97468.94;;;10.14;100.00
5595;BME280;1003;48.002;7.788;2023-03-14T04:44:03;97462.16;;;10.16;100.00
5595;BME280;1003;48.002;7.788;2023-03-14T04:46:30;97434.59;;;10.15;100.00
5595;BME280;1003;48.002;7.788;2023-03-14T04:48:58;97432.22;;;10.12;100.00
5595;BME280;1003;48.002;7.788;2023-03-14T04:51:25;97427.78;;;9.95;100.00
5595;BME280;1003;48.002;7.788;2023-03-14T04:53:53;97424.44;;;9.94;100.00
5595;BME280;1003;48.002;7.788;2023-03-14T04:56:21;97429.22;;;10.02;100.00
5595;BME280;1003;48.002;7.788;2023-03-14T04:58:49;97423.53;;;9.97;100.00
5595;BME280;1003;48.002;7.788;2023-03-14T05:01:16;97419.88;;;9.82;100.00
5595;BME280;1003;48.002;7.788;2023-03-14T05:03:44;97419.81;;;9.84;100.00
5595;BME280;1003;48.002;7.788;2023-03-14T05:06:11;97411.44;;;9.85;100.00
5595;BME280;1003;48.002;7.788;2023-03-14T05:08:39;97400.13;;;9.73;100.00
5595;BME280;1003;48.002;7.788;2023-03-14T05:11:06;97397.59;;;9.75;100.00
5595;BME280;1003;48.002;7.788;2023-03-14T05:13:33;97397.25;;;9.84;100.00
5595;BME280;1003;48.002;7.788;2023-03-14T05:16:10;97400.91;;;9.75;100.00
5595;BME280;1003;48.002;7.788;2023-03-14T05:18:37;97396.41;;;9.83;100.00
5595;BME280;1003;48.002;7.788;2023-03-14T05:21:05;97396.00;;;9.95;100.00
5595;BME280;1003;48.002;7.788;2023-03-14T05:23:32;97394.47;;;9.91;100.00
5595;BME280;1003;48.002;7.788;2023-03-14T05:25:59;97384.94;;;10.01;100.00
5595;BME280;1003;48.002;7.788;2023-03-14T05:28:26;97384.31;;;9.94;100.00
5595;BME280;1003;48.002;7.788;2023-03-14T05:30:54;97398.69;;;9.91;100.00
5595;BME280;1003;48.002;7.788;2023-03-14T05:33:22;97387.09;;;9.87;100.00
5595;BME280;1003;48.002;7.788;2023-03-14T05:35:49;97379.50;;;9.88;100.00
5595;BME280;1003;48.002;7.788;2023-03-14T05:38:16;97388.22;;;9.80;100.00
5595;BME280;1003;48.002;7.788;2023-03-14T05:40:45;97385.34;;;9.89;100.00
5595;BME280;1003;48.002;7.788;2023-03-14T05:43:12;97395.38;;;9.89;100.00
5595;BME280;1003;48.002;7.788;2023-03-14T05:45:41;97394.41;;;9.93;100.00
5595;BME280;1003;48.002;7.788;2023-03-14T05:48:09;97390.22;;;9.93;100.00
5595;BME280;1003;48.002;7.788;2023-03-14T05:50:38;97390.69;;;10.03;100.00
5595;BME280;1003;48.002;7.788;2023-03-14T05:53:05;97386.31;;;10.08;100.00
5595;BME280;1003;48.002;7.788;2023-03-14T05:55:32;97385.72;;;10.25;100.00
5595;BME280;1003;48.002;7.788;2023-03-14T05:57:59;97380.78;;;10.23;100.00
5595;BME280;1003;48.002;7.788;2023-03-14T06:00:26;97373.16;;;10.25;100.00
5595;BME280;1003;48.002;7.788;2023-03-14T06:02:53;97358.00;;;10.28;100.00
5595;BME280;1003;48.002;7.788;2023-03-14T06:05:20;97361.09;;;10.35;100.00
5595;BME280;1003;48.002;7.788;2023-03-14T06:07:49;97352.75;;;10.34;100.00
5595;BME280;1003;48.002;7.788;2023-03-14T06:10:16;97347.75;;;10.33;100.00
5595;BME280;1003;48.002;7.788;2023-03-14T06:12:43;97355.06;;;10.39;100.00
5595;BME280;1003;48.002;7.788;2023-03-14T06:15:12;97351.56;;;10.43;100.00
5595;BME280;1003;48.002;7.788;2023-03-14T06:17:39;97362.75;;;10.56;100.00
5595;BME280;1003;48.002;7.788;2023-03-14T06:20:08;97360.53;;;10.48;100.00
5595;BME280;1003;48.002;7.788;2023-03-14T06:22:35;97357.78;;;10.55;100.00
5595;BME280;1003;48.002;7.788;2023-03-14T06:25:06;97359.19;;;10.62;100.00
5595;BME280;1003;48.002;7.788;2023-03-14T06:27:34;97356.94;;;10.56;100.00
5595;BME280;1003;48.002;7.788;2023-03-14T06:30:01;97358.50;;;10.58;100.00
5595;BME280;1003;48.002;7.788;2023-03-14T06:32:28;97355.88;;;10.61;100.00
5595;BME280;1003;48.002;7.788;2023-03-14T06:34:55;97348.81;;;10.69;100.00
5595;BME280;1003;48.002;7.788;2023-03-14T06:37:23;97357.53;;;10.83;100.00
5595;BME280;1003;48.002;7.788;2023-03-14T06:39:50;97351.38;;;10.90;100.00
5595;BME280;1003;48.002;7.788;2023-03-14T06:42:18;97348.91;;;11.09;100.00
5595;BME280;1003;48.002;7.788;2023-03-14T06:44:45;97347.59;;;11.39;100.00
5595;BME280;1003;48.002;7.788;2023-03-14T06:47:12;97338.84;;;11.48;100.00
5595;BME280;1003;48.002;7.788;2023-03-14T06:49:39;97325.63;;;11.63;100.00
5595;BME280;1003;48.002;7.788;2023-03-14T06:52:06;97340.72;;;11.82;100.00
5595;BME280;1003;48.002;7.788;2023-03-14T06:54:33;97340.13;;;11.96;100.00
5595;BME280;1003;48.002;7.788;2023-03-14T06:57:00;97343.91;;;12.04;100.00
5595;BME280;1003;48.002;7.788;2023-03-14T06:59:29;97346.50;;;12.03;100.00
5595;BME280;1003;48.002;7.788;2023-03-14T07:01:56;97342.56;;;11.97;100.00
5595;BME280;1003;48.002;7.788;2023-03-14T07:04:23;97338.09;;;11.85;100.00
5595;BME280;1003;48.002;7.788;2023-03-14T07:06:50;97346.25;;;11.90;100.00
5595;BME280;1003;48.002;7.788;2023-03-14T07:09:17;97347.81;;;11.93;100.00
5595;BME280;1003;48.002;7.788;2023-03-14T07:11:45;97356.66;;;11.82;100.00
5595;BME280;1003;48.002;7.788;2023-03-14T07:14:12;97359.16;;;12.01;100.00
5595;BME280;1003;48.002;7.788;2023-03-14T07:16:40;97366.13;;;11.96;100.00
5595;BME280;1003;48.002;7.788;2023-03-14T07:19:07;97373.19;;;12.07;100.00
5595;BME280;1003;48.002;7.788;2023-03-14T07:21:34;97373.16;;;12.26;100.00
5595;BME280;1003;48.002;7.788;2023-03-14T07:24:01;97362.72;;;12.33;100.00
5595;BME280;1003;48.002;7.788;2023-03-14T07:26:29;97362.94;;;12.29;100.00
5595;BME280;1003;48.002;7.788;2023-03-14T07:28:56;97375.88;;;12.75;100.00
5595;BME280;1003;48.002;7.788;2023-03-14T07:31:23;97363.22;;;12.94;100.00
5595;BME280;1003;48.002;7.788;2023-03-14T07:33:51;97362.63;;;12.88;100.00
5595;BME280;1003;48.002;7.788;2023-03-14T07:36:18;97355.78;;;12.91;100.00
5595;BME280;1003;48.002;7.788;2023-03-14T07:38:45;97362.97;;;12.64;100.00
5595;BME280;1003;48.002;7.788;2023-03-14T07:41:14;97356.47;;;12.59;100.00
5595;BME280;1003;48.002;7.788;2023-03-14T07:43:41;97355.63;;;12.59;100.00
5595;BME280;1003;48.002;7.788;2023-03-14T07:46:08;97359.50;;;12.49;100.00
5595;BME280;1003;48.002;7.788;2023-03-14T07:48:35;97370.75;;;12.59;100.00
5595;BME280;1003;48.002;7.788;2023-03-14T07:51:04;97369.13;;;12.58;100.00
5595;BME280;1003;48.002;7.788;2023-03-14T07:53:32;97377.59;;;12.57;100.00
5595;BME280;1003;48.002;7.788;2023-03-14T07:55:59;97378.56;;;12.54;100.00
5595;BME280;1003;48.002;7.788;2023-03-14T07:58:26;97365.19;;;12.52;100.00
5595;BME280;1003;48.002;7.788;2023-03-14T08:00:53;97381.41;;;12.47;100.00
5595;BME280;1003;48.002;7.788;2023-03-14T08:03:20;97376.31;;;12.48;100.00
5595;BME280;1003;48.002;7.788;2023-03-14T08:05:48;97393.19;;;12.46;100.00
5595;BME280;1003;48.002;7.788;2023-03-14T08:08:18;97387.53;;;12.60;100.00
5595;BME280;1003;48.002;7.788;2023-03-14T08:10:45;97381.28;;;12.50;100.00
5595;BME280;1003;48.002;7.788;2023-03-14T08:13:13;97391.47;;;12.29;100.00
5595;BME280;1003;48.002;7.788;2023-03-14T08:15:40;97393.44;;;12.23;100.00
5595;BME280;1003;48.002;7.788;2023-03-14T08:18:07;97403.41;;;12.07;100.00
5595;BME280;1003;48.002;7.788;2023-03-14T08:20:36;97410.94;;;12.26;100.00
5595;BME280;1003;48.002;7.788;2023-03-14T08:23:05;97409.19;;;12.28;100.00
5595;BME280;1003;48.002;7.788;2023-03-14T08:25:34;97408.28;;;12.29;100.00
5595;BME280;1003;48.002;7.788;2023-03-14T08:28:01;97419.16;;;12.29;100.00
5595;BME280;1003;48.002;7.788;2023-03-14T08:30:28;97420.25;;;12.24;100.00
5595;BME280;1003;48.002;7.788;2023-03-14T08:32:56;97421.28;;;12.20;100.00
5595;BME280;1003;48.002;7.788;2023-03-14T08:35:24;97427.91;;;12.22;100.00
5595;BME280;1003;48.002;7.788;2023-03-14T08:37:52;97424.41;;;12.25;100.00
5595;BME280;1003;48.002;7.788;2023-03-14T08:40:19;97420.78;;;12.30;100.00
5595;BME280;1003;48.002;7.788;2023-03-14T08:42:47;97428.13;;;12.54;100.00
5595;BME280;1003;48.002;7.788;2023-03-14T08:45:16;97411.66;;;12.47;100.00
5595;BME280;1003;48.002;7.788;2023-03-14T08:47:44;97412.63;;;12.44;100.00
5595;BME280;1003;48.002;7.788;2023-03-14T08:50:12;97429.00;;;12.53;100.00
5595;BME280;1003;48.002;7.788;2023-03-14T08:52:39;97426.09;;;12.79;100.00
5595;BME280;1003;48.002;7.788;2023-03-14T08:55:08;97419.41;;;12.78;100.00
5595;BME280;1003;48.002;7.788;2023-03-14T08:57:35;97438.47;;;12.84;100.00
5595;BME280;1003;48.002;7.788;2023-03-14T09:00:06;97435.22;;;12.99;100.00
5595;BME280;1003;48.002;7.788;2023-03-14T09:02:36;97427.28;;;13.07;100.00
5595;BME280;1003;48.002;7.788;2023-03-14T09:05:04;97432.44;;;13.23;100.00
5595;BME280;1003;48.002;7.788;2023-03-14T09:07:31;97434.94;;;13.05;100.00
5595;BME280;1003;48.002;7.788;2023-03-14T09:09:58;97437.53;;;12.86;100.00
5595;BME280;1003;48.002;7.788;2023-03-14T09:12:25;97434.41;;;12.99;100.00
5595;BME280;1003;48.002;7.788;2023-03-14T09:14:52;97429.88;;;12.88;100.00
5595;BME280;1003;48.002;7.788;2023-03-14T09:17:21;97417.78;;;12.77;100.00
5595;BME280;1003;48.002;7.788;2023-03-14T09:19:48;97424.41;;;12.97;100.00
5595;BME280;1003;48.002;7.788;2023-03-14T09:22:15;97428.41;;;13.01;100.00
5595;BME280;1003;48.002;7.788;2023-03-14T09:24:42;97422.94;;;12.93;100.00
5595;BME280;1003;48.002;7.788;2023-03-14T09:27:09;97433.66;;;12.97;100.00
5595;BME280;1003;48.002;7.788;2023-03-14T09:29:36;97418.22;;;12.85;100.00
5595;BME280;1003;48.002;7.788;2023-03-14T09:32:03;97417.78;;;12.95;100.00
5595;BME280;1003;48.002;7.788;2023-03-14T09:34:32;97431.72;;;12.67;100.00
5595;BME280;1003;48.002;7.788;2023-03-14T09:37:00;97439.63;;;12.59;100.00
5595;BME280;1003;48.002;7.788;2023-03-14T09:39:27;97438.44;;;12.49;100.00
5595;BME280;1003;48.002;7.788;2023-03-14T09:41:56;97455.47;;;12.44;100.00
5595;BME280;1003;48.002;7.788;2023-03-14T09:44:29;97456.59;;;12.37;100.00
5595;BME280;1003;48.002;7.788;2023-03-14T09:47:02;97461.19;;;12.29;100.00
5595;BME280;1003;48.002;7.788;2023-03-14T09:49:34;97479.69;;;12.28;100.00
5595;BME280;1003;48.002;7.788;2023-03-14T09:52:12;97472.94;;;12.09;100.00
5595;BME280;1003;48.002;7.788;2023-03-14T09:54:44;97471.22;;;12.10;100.00
5595;BME280;1003;48.002;7.788;2023-03-14T09:57:16;97467.63;;;11.97;100.00
5595;BME280;1003;48.002;7.788;2023-03-14T09:59:46;97476.38;;;11.88;100.00
5595;BME280;1003;48.002;7.788;2023-03-14T10:02:19;97483.81;;;11.71;100.00
5595;BME280;1003;48.002;7.788;2023-03-14T10:04:51;97488.53;;;11.78;100.00
5595;BME280;1003;48.002;7.788;2023-03-14T10:07:26;97499.78;;;11.70;100.00
5595;BME280;1003;48.002;7.788;2023-03-14T10:09:55;97500.94;;;11.83;100.00
5595;BME280;1003;48.002;7.788;2023-03-14T10:12:31;97501.91;;;11.99;100.00
5595;BME280;1003;48.002;7.788;2023-03-14T10:15:03;97509.88;;;12.09;100.00
5595;BME280;1003;48.002;7.788;2023-03-14T10:17:39;97510.53;;;12.33;100.00
5595;BME280;1003;48.002;7.788;2023-03-14T10:20:28;97508.50;;;12.41;100.00
5595;BME280;1003;48.002;7.788;2023-03-14T10:22:59;97515.00;;;12.26;100.00
5595;BME280;1003;48.002;7.788;2023-03-14T10:25:29;97519.81;;;12.32;100.00
5595;BME280;1003;48.002;7.788;2023-03-14T10:27:58;97520.03;;;12.26;100.00
5595;BME280;1003;48.002;7.788;2023-03-14T10:30:38;97520.28;;;12.22;100.00
5595;BME280;1003;48.002;7.788;2023-03-14T10:33:12;97530.13;;;12.26;100.00
5595;BME280;1003;48.002;7.788;2023-03-14T10:35:52;97517.59;;;12.06;100.00
5595;BME280;1003;48.002;7.788;2023-03-14T10:38:23;97543.13;;;12.17;100.00
5595;BME280;1003;48.002;7.788;2023-03-14T10:40:54;97533.56;;;12.05;100.00
5595;BME280;1003;48.002;7.788;2023-03-14T10:43:25;97544.13;;;12.13;100.00
5595;BME280;1003;48.002;7.788;2023-03-14T10:45:56;97556.84;;;12.10;100.00
5595;BME280;1003;48.002;7.788;2023-03-14T10:48:31;97574.34;;;12.13;100.00
5595;BME280;1003;48.002;7.788;2023-03-14T10:51:07;97577.63;;;12.15;100.00
5595;BME280;1003;48.002;7.788;2023-03-14T10:53:41;97594.56;;;12.12;100.00
5595;BME280;1003;48.002;7.788;2023-03-14T10:56:12;97602.50;;;12.23;100.00
5595;BME280;1003;48.002;7.788;2023-03-14T10:58:42;97609.25;;;12.22;100.00
5595;BME280;1003;48.002;7.788;2023-03-14T11:01:28;97615.91;;;12.03;100.00
5595;BME280;1003;48.002;7.788;2023-03-14T11:04:10;97631.72;;;12.06;100.00
5595;BME280;1003;48.002;7.788;2023-03-14T11:06:48;97641.16;;;12.01;100.00
5595;BME280;1003;48.002;7.788;2023-03-14T11:09:27;97642.44;;;12.12;100.00
5595;BME280;1003;48.002;7.788;2023-03-14T11:12:05;97672.06;;;12.46;100.00
5595;BME280;1003;48.002;7.788;2023-03-14T11:14:46;97675.69;;;12.59;100.00
5595;BME280;1003;48.002;7.788;2023-03-14T11:17:27;97685.38;;;12.49;100.00
5595;BME280;1003;48.002;7.788;2023-03-14T11:20:17;97699.72;;;12.47;100.00
5595;BME280;1003;48.002;7.788;2023-03-14T11:22:59;97734.75;;;12.33;100.00
5595;BME280;1003;48.002;7.788;2023-03-14T11:25:36;97747.91;;;11.97;100.00
5595;BME280;1003;48.002;7.788;2023-03-14T11:28:18;97810.44;;;11.63;100.00
5595;BME280;1003;48.002;7.788;2023-03-14T11:30:52;97881.66;;;10.37;100.00
5595;BME280;1003;48.002;7.788;2023-03-14T11:33:25;97857.47;;;8.45;100.00
5595;BME280;1003;48.002;7.788;2023-03-14T11:36:03;97860.91;;;8.00;100.00
5595;BME280;1003;48.002;7.788;2023-03-14T11:38:40;97884.25;;;8.01;100.00
5595;BME280;1003;48.002;7.788;2023-03-14T11:41:17;97904.91;;;8.51;100.00
5595;BME280;1003;48.002;7.788;2023-03-14T11:43:48;97904.44;;;9.06;100.00
5595;BME280;1003;48.002;7.788;2023-03-14T11:46:36;97909.47;;;9.39;100.00
5595;BME280;1003;48.002;7.788;2023-03-14T11:49:13;97896.44;;;9.57;100.00
5595;BME280;1003;48.002;7.788;2023-03-14T11:51:46;97874.25;;;9.75;100.00
5595;BME280;1003;48.002;7.788;2023-03-14T11:54:27;97875.47;;;9.89;100.00
5595;BME280;1003;48.002;7.788;2023-03-14T11:56:59;97886.22;;;10.52;100.00
5595;BME280;1003;48.002;7.788;2023-03-14T11:59:32;97901.78;;;10.90;100.00
5595;BME280;1003;48.002;7.788;2023-03-14T12:02:04;97904.34;;;11.13;100.00
5595;BME280;1003;48.002;7.788;2023-03-14T12:04:51;97889.94;;;11.18;100.00
5595;BME280;1003;48.002;7.788;2023-03-14T12:07:29;97902.41;;;10.96;100.00
5595;BME280;1003;48.002;7.788;2023-03-14T12:10:03;97908.50;;;10.89;100.00
5595;BME280;1003;48.002;7.788;2023-03-14T12:12:31;97904.81;;;11.49;100.00
5595;BME280;1003;48.002;7.788;2023-03-14T12:15:01;97915.22;;;11.15;100.00
5595;BME280;1003;48.002;7.788;2023-03-14T12:17:37;97937.09;;;11.62;100.00
5595;BME280;1003;48.002;7.788;2023-03-14T12:20:16;97947.75;;;11.70;100.00
5595;BME280;1003;48.002;7.788;2023-03-14T12:22:46;97959.09;;;12.52;100.00
5595;BME280;1003;48.002;7.788;2023-03-14T12:25:20;97954.97;;;12.93;100.00
5595;BME280;1003;48.002;7.788;2023-03-14T12:28:05;97939.25;;;13.08;100.00
5595;BME280;1003;48.002;7.788;2023-03-14T12:30:43;97930.25;;;12.81;100.00
5595;BME280;1003;48.002;7.788;2023-03-14T12:33:33;97927.94;;;13.17;100.00
5595;BME280;1003;48.002;7.788;2023-03-14T12:36:12;97925.22;;;13.01;100.00
5595;BME280;1003;48.002;7.788;2023-03-14T12:38:59;97917.81;;;13.39;100.00
5595;BME280;1003;48.002;7.788;2023-03-14T12:41:38;97918.16;;;13.71;100.00
5595;BME280;1003;48.002;7.788;2023-03-14T12:44:49;97913.69;;;13.96;100.00
5595;BME280;1003;48.002;7.788;2023-03-14T12:47:55;97899.16;;;13.43;100.00
5595;BME280;1003;48.002;7.788;2023-03-14T12:50:41;97909.41;;;13.18;100.00
5595;BME280;1003;48.002;7.788;2023-03-14T12:53:56;97913.81;;;12.93;100.00
5595;BME280;1003;48.002;7.788;2023-03-14T12:57:13;97939.09;;;12.02;100.00
5595;BME280;1003;48.002;7.788;2023-03-14T12:59:48;97947.28;;;11.34;100.00
5595;BME280;1003;48.002;7.788;2023-03-14T13:02:25;97963.03;;;10.87;100.00
5595;BME280;1003;48.002;7.788;2023-03-14T13:05:03;97988.34;;;10.53;100.00
5595;BME280;1003;48.002;7.788;2023-03-14T13:08:04;98006.19;;;10.44;100.00
5595;BME280;1003;48.002;7.788;2023-03-14T13:10:42;98011.75;;;10.83;100.00
5595;BME280;1003;48.002;7.788;2023-03-14T13:13:20;98020.56;;;11.49;100.00
5595;BME280;1003;48.002;7.788;2023-03-14T13:15:54;98029.25;;;11.66;100.00
5595;BME280;1003;48.002;7.788;2023-03-14T13:18:29;98015.03;;;11.65;100.00
5595;BME280;1003;48.002;7.788;2023-03-14T13:21:05;98025.88;;;11.40;100.00
5595;BME280;1003;48.002;7.788;2023-03-14T13:23:37;98019.41;;;11.07;100.00
5595;BME280;1003;48.002;7.788;2023-03-14T13:26:11;98023.75;;;10.73;100.00
5595;BME280;1003;48.002;7.788;2023-03-14T13:28:41;98026.50;;;10.66;100.00
5595;BME280;1003;48.002;7.788;2023-03-14T13:31:22;98025.06;;;10.57;100.00